createdAt,value
2018-07-28T00:00:55.742Z,83.30
2018-07-28T00:03:24.841Z,81.60
2018-07-28T00:05:53.898Z,85.20
2018-07-28T00:08:23.026Z,84.20
2018-07-28T00:10:52.178Z,80.20
2018-07-28T00:13:21.281Z,76.80
2018-07-28T00:15:50.347Z,74.50
2018-07-28T00:18:19.429Z,86.40
2018-07-28T00:20:48.462Z,85.70
2018-07-28T00:23:17.529Z,87.40
2018-07-28T00:26:18.226Z,86.10
2018-07-28T00:28:48.890Z,90.10
2018-07-28T00:31:18.062Z,90.60
2018-07-28T00:33:47.295Z,90.20
2018-07-28T00:36:16.426Z,90.90
2018-07-28T00:38:45.522Z,92.30
2018-07-28T00:41:14.615Z,92.70
2018-07-28T00:43:43.638Z,91.10
2018-07-28T00:46:12.687Z,92.80
2018-07-28T00:48:41.718Z,90.20
2018-07-28T00:51:11.901Z,93.30
2018-07-28T00:53:40.970Z,91.90
2018-07-28T00:56:10.006Z,88.90
2018-07-28T00:58:39.077Z,92.20
2018-07-28T01:01:08.113Z,95.20
2018-07-28T01:03:37.171Z,97.00
2018-07-28T01:06:06.509Z,96.90
2018-07-28T01:08:35.558Z,96.70
2018-07-28T01:11:04.605Z,98.90
2018-07-28T01:13:33.721Z,99.90
2018-07-28T01:16:02.911Z,99.90
2018-07-28T01:18:31.920Z,99.90
2018-07-28T01:21:00.961Z,98.10
2018-07-28T01:23:30.039Z,99.90
2018-07-28T01:25:59.070Z,99.90
2018-07-28T01:28:28.098Z,99.90
2018-07-28T01:30:57.190Z,99.90
2018-07-28T01:33:26.252Z,99.90
2018-07-28T01:38:23.873Z,99.90
2018-07-28T01:40:52.921Z,99.90
2018-07-28T01:43:21.955Z,99.90
2018-07-28T01:46:04.009Z,99.90
2018-07-28T01:48:33.045Z,99.90
2018-07-28T01:51:02.086Z,99.90
2018-07-28T01:53:31.133Z,99.90
2018-07-28T01:56:00.169Z,99.90
2018-07-28T01:58:29.208Z,99.90
2018-07-28T02:00:58.389Z,99.90
2018-07-28T02:03:27.388Z,99.90
2018-07-28T02:05:56.427Z,99.90
2018-07-28T02:08:25.418Z,99.90
2018-07-28T02:10:54.462Z,99.90
2018-07-28T02:13:23.508Z,99.90
2018-07-28T02:15:52.542Z,99.90
2018-07-28T02:18:21.673Z,99.90
2018-07-28T02:20:50.694Z,99.90
2018-07-28T02:23:19.737Z,99.90
2018-07-28T02:25:48.797Z,99.90
2018-07-28T02:28:17.917Z,99.90
2018-07-28T02:30:46.981Z,99.90
2018-07-28T02:33:16.025Z,99.90
2018-07-28T02:35:45.073Z,99.90
2018-07-28T02:38:14.181Z,99.90
2018-07-28T02:40:43.221Z,99.90
2018-07-28T02:43:12.282Z,99.90
2018-07-28T02:45:41.367Z,99.90
2018-07-28T02:48:10.413Z,99.90
2018-07-28T02:50:39.466Z,99.90
2018-07-28T02:53:08.526Z,99.90
2018-07-28T02:55:37.618Z,99.90
2018-07-28T02:58:06.988Z,99.90
2018-07-28T03:00:36.127Z,99.90
2018-07-28T03:03:05.225Z,99.90
2018-07-28T03:05:34.254Z,99.90
2018-07-28T03:10:31.969Z,99.90
2018-07-28T03:13:01.023Z,99.90
2018-07-28T03:15:34.470Z,99.90
2018-07-28T03:18:06.625Z,99.90
2018-07-28T03:20:35.783Z,99.90
2018-07-28T03:23:05.411Z,99.90
2018-07-28T03:25:34.506Z,99.90
2018-07-28T03:28:03.546Z,99.90
2018-07-28T03:30:32.594Z,99.90
2018-07-28T03:33:01.658Z,99.90
2018-07-28T03:35:30.661Z,99.90
2018-07-28T03:37:59.698Z,99.90
2018-07-28T03:40:28.882Z,99.90
2018-07-28T03:42:58.094Z,99.90
2018-07-28T03:45:27.420Z,99.90
2018-07-28T03:47:56.647Z,99.90
2018-07-28T03:50:25.947Z,99.90
2018-07-28T03:52:55.142Z,99.90
2018-07-28T03:55:24.359Z,99.90
2018-07-28T03:57:53.603Z,99.90
2018-07-28T04:00:22.811Z,99.90
2018-07-28T04:02:52.159Z,99.90
2018-07-28T04:05:21.433Z,99.90
2018-07-28T04:07:50.735Z,99.90
2018-07-28T04:10:20.007Z,99.90
2018-07-28T04:12:49.322Z,99.90
2018-07-28T04:15:18.608Z,99.90
2018-07-28T04:17:55.754Z,99.90
2018-07-28T04:20:26.176Z,99.90
2018-07-28T04:22:55.673Z,99.90
2018-07-28T04:25:25.167Z,99.90
2018-07-28T04:30:23.251Z,99.90
2018-07-28T04:32:52.435Z,99.90
2018-07-28T04:35:21.728Z,99.90
2018-07-28T04:37:50.975Z,99.90
2018-07-28T04:40:20.272Z,99.90
2018-07-28T04:42:49.596Z,99.90
2018-07-28T04:45:18.877Z,99.90
2018-07-28T04:48:10.494Z,99.90
2018-07-28T04:50:39.783Z,99.90
2018-07-28T04:53:09.277Z,99.90
2018-07-28T04:58:07.676Z,99.90
2018-07-28T05:00:36.975Z,99.90
2018-07-28T05:03:06.175Z,99.90
2018-07-28T05:05:35.404Z,99.90
2018-07-28T05:08:04.715Z,99.90
2018-07-28T05:10:33.966Z,99.90
2018-07-28T05:13:03.220Z,99.90
2018-07-28T05:15:32.540Z,99.90
2018-07-28T05:18:01.795Z,99.90
2018-07-28T05:20:31.014Z,99.90
2018-07-28T05:23:00.287Z,99.90
2018-07-28T05:25:29.522Z,99.90
2018-07-28T05:27:58.742Z,99.90
2018-07-28T05:30:27.963Z,99.90
2018-07-28T05:32:57.252Z,99.90
2018-07-28T05:35:26.562Z,99.90
2018-07-28T05:37:55.863Z,99.90
2018-07-28T05:40:25.147Z,99.90
2018-07-28T05:42:54.447Z,99.90
2018-07-28T05:45:23.695Z,99.90
2018-07-28T05:47:52.972Z,99.90
2018-07-28T05:50:22.262Z,99.90
2018-07-28T05:52:51.579Z,99.90
2018-07-28T05:55:20.832Z,99.90
2018-07-28T05:57:50.096Z,99.90
2018-07-28T06:00:19.479Z,99.90
2018-07-28T06:02:48.869Z,99.90
2018-07-28T06:05:18.059Z,99.90
2018-07-28T06:07:47.246Z,99.90
2018-07-28T06:10:16.281Z,99.90
2018-07-28T06:13:03.100Z,99.90
2018-07-28T06:15:32.216Z,99.90
2018-07-28T06:18:01.269Z,99.90
2018-07-28T06:20:30.328Z,99.90
2018-07-28T06:22:59.358Z,99.90
2018-07-28T06:25:28.458Z,99.90
2018-07-28T06:27:57.474Z,99.90
2018-07-28T06:30:26.549Z,99.90
2018-07-28T06:32:55.702Z,99.90
2018-07-28T06:35:24.725Z,99.90
2018-07-28T06:37:53.766Z,99.90
2018-07-28T06:40:22.820Z,99.90
2018-07-28T06:42:51.901Z,99.90
2018-07-28T06:45:20.945Z,99.90
2018-07-28T06:47:49.982Z,99.90
2018-07-28T06:50:19.046Z,99.90
2018-07-28T06:52:48.125Z,99.90
2018-07-28T06:55:17.245Z,99.90
2018-07-28T06:57:46.317Z,99.90
2018-07-28T07:00:15.422Z,99.90
2018-07-28T07:02:45.049Z,99.90
2018-07-28T07:05:14.161Z,99.90
2018-07-28T07:07:43.298Z,99.90
2018-07-28T07:10:12.398Z,99.90
2018-07-28T07:12:41.405Z,99.90
2018-07-28T07:15:10.503Z,99.90
2018-07-28T07:17:39.518Z,99.90
2018-07-28T07:20:09.011Z,99.90
2018-07-28T07:22:38.094Z,99.90
2018-07-28T07:25:07.145Z,99.90
2018-07-28T07:27:36.203Z,99.90
2018-07-28T07:30:06.191Z,99.90
2018-07-28T07:32:35.266Z,99.90
2018-07-28T07:35:04.394Z,99.90
2018-07-28T07:37:33.475Z,99.90
2018-07-28T07:40:02.598Z,99.90
2018-07-28T07:42:31.601Z,99.90
2018-07-28T07:45:00.652Z,99.90
2018-07-28T07:47:29.800Z,99.90
2018-07-28T07:49:58.912Z,99.90
2018-07-28T07:52:27.953Z,99.90
2018-07-28T07:54:56.974Z,99.90
2018-07-28T07:57:26.022Z,99.90
2018-07-28T08:02:23.656Z,99.90
2018-07-28T08:04:52.731Z,99.90
2018-07-28T08:07:21.737Z,99.90
2018-07-28T08:09:50.805Z,99.90
2018-07-28T08:12:19.865Z,99.90
2018-07-28T08:14:48.897Z,99.90
2018-07-28T08:17:17.934Z,99.90
2018-07-28T08:19:46.946Z,99.90
2018-07-28T08:22:16.042Z,99.90
2018-07-28T08:24:45.109Z,99.80
2018-07-28T08:27:14.134Z,99.90
2018-07-28T08:29:43.163Z,99.90
2018-07-28T08:32:32.036Z,99.90
2018-07-28T08:35:01.111Z,99.50
2018-07-28T08:37:30.170Z,99.00
2018-07-28T08:39:59.282Z,98.70
2018-07-28T08:42:28.311Z,98.90
2018-07-28T08:44:57.326Z,98.30
2018-07-28T08:47:26.377Z,98.00
2018-07-28T08:49:55.446Z,98.00
2018-07-28T08:52:24.536Z,95.70
2018-07-28T08:54:53.583Z,95.50
2018-07-28T08:57:22.590Z,95.40
2018-07-28T08:59:51.632Z,92.70
2018-07-28T09:02:20.657Z,91.90
2018-07-28T09:05:02.525Z,90.20
2018-07-28T09:07:31.821Z,90.80
2018-07-28T09:10:01.555Z,90.00
2018-07-28T09:12:30.662Z,88.60
2018-07-28T09:14:59.644Z,87.10
2018-07-28T09:17:28.737Z,87.40
2018-07-28T09:19:57.782Z,85.10
2018-07-28T09:22:26.841Z,85.60
2018-07-28T09:24:56.130Z,85.00
2018-07-28T09:27:25.459Z,86.20
2018-07-28T09:29:54.679Z,84.10
2018-07-28T09:32:23.942Z,85.10
2018-07-28T09:34:53.235Z,80.50
2018-07-28T09:37:22.504Z,80.70
2018-07-28T09:39:51.834Z,79.40
2018-07-28T09:42:21.031Z,80.30
2018-07-28T09:44:50.299Z,85.00
2018-07-28T09:47:19.832Z,79.20
2018-07-28T09:49:49.160Z,77.50
2018-07-28T09:52:18.496Z,78.40
2018-07-28T09:54:47.706Z,75.00
2018-07-28T09:57:17.068Z,76.30
2018-07-28T09:59:46.453Z,75.40
2018-07-28T10:02:15.849Z,76.30
2018-07-28T10:04:45.182Z,76.30
2018-07-28T10:07:14.501Z,75.20
2018-07-28T10:09:43.811Z,74.20
2018-07-28T10:12:13.168Z,74.90
2018-07-28T10:14:42.439Z,73.10
2018-07-28T10:17:11.667Z,72.90
2018-07-28T10:19:40.962Z,71.80
2018-07-28T10:22:10.238Z,75.30
2018-07-28T10:24:39.554Z,78.60
2018-07-28T10:27:08.922Z,83.90
2018-07-28T10:29:38.218Z,82.90
2018-07-28T10:32:07.614Z,86.10
2018-07-28T10:34:36.995Z,86.60
2018-07-28T10:37:07.005Z,85.50
2018-07-28T10:39:36.445Z,87.00
2018-07-28T10:42:05.796Z,85.50
2018-07-28T10:44:35.129Z,85.50
2018-07-28T10:47:04.426Z,86.90
2018-07-28T10:49:33.755Z,88.80
2018-07-28T10:52:03.071Z,88.60
2018-07-28T10:54:32.436Z,88.40
2018-07-28T10:57:01.744Z,86.90
2018-07-28T10:59:31.015Z,85.30
2018-07-28T11:02:00.563Z,86.00
2018-07-28T11:04:29.883Z,84.80
2018-07-28T11:06:59.215Z,86.40
2018-07-28T11:09:28.840Z,87.50
2018-07-28T11:11:58.136Z,88.80
2018-07-28T11:14:27.386Z,88.70
2018-07-28T11:16:56.604Z,89.80
2018-07-28T11:19:25.917Z,90.60
2018-07-28T11:21:55.291Z,91.90
2018-07-28T11:24:24.606Z,91.80
2018-07-28T11:26:53.978Z,90.60
2018-07-28T11:29:23.223Z,90.00
2018-07-28T11:32:03.509Z,90.20
2018-07-28T11:34:43.606Z,89.00
2018-07-28T11:37:49.015Z,90.20
2018-07-28T11:40:29.071Z,90.40
2018-07-28T11:43:09.587Z,90.30
2018-07-28T11:45:38.991Z,89.90
2018-07-28T11:48:08.259Z,89.40
2018-07-28T11:50:37.467Z,89.50
2018-07-28T11:53:06.723Z,88.80
2018-07-28T11:55:36.015Z,89.50
2018-07-28T11:58:05.429Z,90.10
2018-07-28T12:00:34.756Z,90.50
2018-07-28T12:03:04.039Z,89.60
2018-07-28T12:05:33.370Z,89.40
2018-07-28T12:08:02.599Z,91.60
2018-07-28T12:10:31.950Z,91.80
2018-07-28T12:13:01.239Z,89.50
2018-07-28T12:15:30.449Z,83.00
2018-07-28T12:17:59.689Z,85.00
2018-07-28T12:20:28.953Z,85.50
2018-07-28T12:22:58.215Z,83.20
2018-07-28T12:25:27.545Z,81.00
2018-07-28T12:27:56.790Z,78.20
2018-07-28T12:30:26.071Z,80.20
2018-07-28T12:32:55.298Z,78.30
2018-07-28T12:35:24.593Z,77.20
2018-07-28T12:37:54.005Z,78.50
2018-07-28T12:40:23.449Z,75.10
2018-07-28T12:42:52.770Z,72.20
2018-07-28T12:52:48.874Z,70.80
2018-07-28T12:55:18.198Z,69.20
2018-07-28T12:57:47.540Z,69.30
2018-07-28T13:00:16.808Z,68.00
2018-07-28T13:02:46.159Z,68.20
2018-07-28T13:05:15.494Z,66.20
2018-07-28T13:07:44.754Z,66.30
2018-07-28T13:10:14.259Z,67.50
2018-07-28T13:17:41.117Z,65.60
2018-07-28T13:25:30.923Z,63.30
2018-07-28T13:28:00.203Z,63.40
2018-07-28T13:30:29.522Z,61.30
2018-07-28T13:32:58.750Z,60.80
2018-07-28T13:35:28.144Z,61.00
2018-07-28T13:37:57.868Z,62.00
2018-07-28T13:40:27.200Z,59.70
2018-07-28T13:47:54.193Z,61.10
2018-07-28T13:50:23.535Z,61.70
2018-07-28T13:52:53.002Z,60.20
2018-07-28T13:55:22.606Z,60.70
2018-07-28T13:57:51.906Z,61.70
2018-07-28T14:00:38.838Z,61.40
2018-07-28T14:06:03.968Z,60.30
2018-07-28T14:08:34.311Z,60.40
2018-07-28T14:11:03.676Z,59.50
2018-07-28T14:13:33.188Z,61.10
2018-07-28T14:16:02.478Z,61.30
2018-07-28T14:18:32.178Z,61.70
2018-07-28T14:21:01.469Z,63.10
2018-07-28T14:23:30.840Z,62.20
2018-07-28T14:26:00.087Z,62.50
2018-07-28T14:28:29.514Z,62.00
2018-07-28T14:30:58.798Z,63.10
2018-07-28T14:33:28.180Z,63.60
2018-07-28T14:35:57.487Z,62.00
2018-07-28T14:38:26.827Z,66.60
2018-07-28T14:40:56.047Z,67.10
2018-07-28T14:43:49.375Z,77.50
2018-07-28T14:46:18.682Z,75.90
2018-07-28T14:48:48.074Z,71.70
2018-07-28T14:51:17.418Z,71.00
2018-07-28T14:53:46.798Z,76.90
2018-07-28T14:56:16.111Z,79.70
2018-07-28T14:58:45.710Z,79.50
2018-07-28T15:03:55.402Z,83.70
2018-07-28T15:06:24.658Z,84.20
2018-07-28T15:14:59.339Z,93.00
2018-07-28T15:17:28.628Z,97.60
2018-07-28T15:19:57.947Z,99.90
2018-07-28T15:22:27.326Z,99.90
2018-07-28T15:24:56.655Z,99.90
2018-07-28T15:27:26.087Z,99.90
2018-07-28T15:29:55.416Z,99.90
2018-07-28T15:32:24.682Z,99.90
2018-07-28T15:34:53.927Z,99.90
2018-07-28T15:37:23.203Z,99.90
2018-07-28T15:39:52.516Z,99.90
2018-07-28T15:42:21.825Z,99.90
2018-07-28T15:44:51.073Z,99.90
2018-07-28T15:47:20.374Z,99.90
2018-07-28T15:49:49.708Z,99.90
2018-07-28T15:52:19.155Z,99.90
2018-07-28T15:54:48.495Z,99.90
2018-07-28T15:57:18.130Z,99.90
2018-07-28T15:59:47.584Z,99.90
2018-07-28T16:02:17.882Z,99.90
2018-07-28T16:04:51.430Z,99.90
2018-07-28T16:07:20.927Z,99.90
2018-07-28T16:09:51.254Z,99.90
2018-07-28T16:12:20.705Z,99.90
2018-07-28T16:15:01.851Z,99.90
2018-07-28T16:17:31.139Z,99.90
2018-07-28T16:20:00.496Z,99.90
2018-07-28T16:22:29.770Z,99.90
2018-07-28T16:24:59.282Z,99.90
2018-07-28T16:27:28.647Z,99.90
2018-07-28T16:30:03.350Z,99.90
2018-07-28T16:32:56.658Z,99.90
2018-07-28T16:35:25.899Z,99.90
2018-07-28T16:37:55.219Z,99.90
2018-07-28T16:40:24.509Z,99.90
2018-07-28T16:42:53.829Z,99.90
2018-07-28T16:45:23.159Z,99.90
2018-07-28T16:48:01.689Z,99.90
2018-07-28T16:50:31.032Z,99.90
2018-07-28T16:53:00.433Z,99.90
2018-07-28T16:55:47.858Z,99.90
2018-07-28T16:58:17.154Z,99.90
2018-07-28T17:01:05.794Z,99.90
2018-07-28T17:03:44.580Z,99.90
2018-07-28T17:06:14.148Z,99.90
2018-07-28T17:08:57.548Z,99.90
2018-07-28T17:11:34.064Z,99.90
2018-07-28T17:14:16.060Z,99.90
2018-07-28T17:16:45.334Z,99.90
2018-07-28T17:19:14.795Z,99.90
2018-07-28T17:21:44.356Z,99.90
2018-07-28T17:24:14.368Z,99.90
2018-07-28T17:26:45.418Z,99.90
2018-07-28T17:29:16.395Z,99.90
2018-07-28T17:31:45.930Z,99.90
2018-07-28T17:34:15.226Z,99.90
2018-07-28T17:36:44.538Z,99.90
2018-07-28T17:39:13.767Z,99.90
2018-07-28T17:42:01.982Z,99.90
2018-07-28T17:44:31.280Z,99.90
2018-07-28T17:49:29.513Z,99.90
2018-07-28T17:51:58.750Z,99.90
2018-07-28T17:54:27.979Z,99.90
2018-07-28T17:56:57.319Z,99.90
2018-07-28T17:59:26.617Z,99.90
2018-07-28T18:01:55.876Z,99.90
2018-07-28T18:04:25.166Z,99.90
2018-07-28T18:07:16.807Z,99.90
2018-07-28T18:09:46.124Z,99.90
2018-07-28T18:12:15.414Z,99.90
2018-07-28T18:14:44.754Z,99.90
2018-07-28T18:17:14.017Z,99.90
2018-07-28T18:19:43.238Z,99.90
2018-07-28T18:22:12.497Z,99.90
2018-07-28T18:24:41.702Z,99.90
2018-07-28T18:27:10.925Z,99.90
2018-07-28T18:29:41.417Z,99.90
2018-07-28T18:32:11.510Z,99.90
2018-07-28T18:34:40.792Z,99.90
2018-07-28T18:37:09.970Z,99.90
2018-07-28T18:39:39.122Z,99.90
2018-07-28T18:42:08.282Z,99.90
2018-07-28T18:44:37.300Z,99.90
2018-07-28T18:47:06.557Z,99.90
2018-07-28T18:49:35.578Z,99.90
2018-07-28T18:52:04.730Z,99.90
2018-07-28T18:54:33.814Z,99.90
2018-07-28T18:57:02.846Z,99.90
2018-07-28T18:59:31.889Z,99.90
2018-07-28T19:02:00.945Z,99.90
2018-07-28T19:04:30.010Z,99.90
2018-07-28T19:06:59.075Z,99.90
2018-07-28T19:09:33.475Z,99.90
2018-07-28T19:12:02.511Z,99.90
2018-07-28T19:14:36.189Z,99.90
2018-07-28T19:17:05.385Z,99.90
2018-07-28T19:19:34.402Z,99.90
2018-07-28T19:22:03.591Z,99.90
2018-07-28T19:24:32.841Z,99.90
2018-07-28T19:27:01.905Z,99.90
2018-07-28T19:29:36.162Z,99.90
2018-07-28T19:32:05.298Z,99.90
2018-07-28T19:34:35.347Z,99.90
2018-07-28T19:37:09.637Z,99.90
2018-07-28T19:39:38.768Z,99.90
2018-07-28T19:42:12.909Z,99.90
2018-07-28T19:44:41.982Z,99.90
2018-07-28T19:47:11.077Z,99.90
2018-07-28T19:49:40.150Z,99.90
2018-07-28T19:52:09.245Z,99.90
2018-07-28T19:54:38.480Z,99.90
2018-07-28T19:57:07.497Z,99.90
2018-07-28T19:59:36.553Z,99.90
2018-07-28T20:02:05.650Z,99.90
2018-07-28T20:04:34.685Z,99.90
2018-07-28T20:07:03.718Z,99.90
2018-07-28T20:09:32.746Z,99.90
2018-07-28T20:12:01.816Z,99.90
2018-07-28T20:14:31.010Z,99.90
2018-07-28T20:17:00.364Z,99.90
2018-07-28T20:19:29.603Z,99.90
2018-07-28T20:21:58.897Z,99.90
2018-07-28T20:24:28.183Z,99.90
2018-07-28T20:29:26.169Z,99.90
2018-07-28T20:31:55.499Z,99.90
2018-07-28T20:34:24.827Z,99.90
2018-07-28T20:36:54.167Z,99.90
2018-07-28T20:39:23.437Z,99.90
2018-07-28T20:41:52.662Z,99.90
2018-07-28T20:44:21.955Z,99.90
2018-07-28T20:46:51.306Z,99.90
2018-07-28T20:49:20.490Z,99.90
2018-07-28T20:51:49.752Z,99.90
2018-07-28T20:54:19.091Z,99.90
2018-07-28T20:56:48.451Z,99.90
2018-07-28T20:59:17.730Z,99.90
2018-07-28T21:01:47.082Z,99.90
2018-07-28T21:04:16.303Z,99.90
2018-07-28T21:06:45.542Z,99.90
2018-07-28T21:09:14.815Z,99.90
2018-07-28T21:11:44.134Z,99.90
2018-07-28T21:14:13.529Z,99.90
2018-07-28T21:16:42.798Z,99.90
2018-07-28T21:19:12.093Z,99.90
2018-07-28T21:21:41.465Z,99.90
2018-07-28T21:24:10.698Z,99.90
2018-07-28T21:26:40.204Z,99.90
2018-07-28T21:29:09.568Z,99.90
2018-07-28T21:31:38.827Z,99.90
2018-07-28T21:34:08.130Z,99.90
2018-07-28T21:36:37.478Z,99.90
2018-07-28T21:39:09.317Z,99.90
2018-07-28T21:41:38.743Z,99.90
2018-07-28T21:44:08.036Z,99.90
2018-07-28T21:46:37.360Z,99.90
2018-07-28T21:49:06.556Z,99.90
2018-07-28T21:51:37.181Z,99.90
2018-07-28T21:54:06.308Z,99.90
2018-07-28T21:56:35.507Z,99.90
2018-07-28T21:59:04.816Z,99.90
2018-07-28T22:01:34.143Z,99.90
2018-07-28T22:04:03.987Z,99.90
2018-07-28T22:06:34.730Z,99.90
2018-07-28T22:09:04.160Z,99.90
2018-07-28T22:11:33.431Z,99.90
2018-07-28T22:16:31.522Z,99.90
2018-07-28T22:19:00.820Z,99.90
2018-07-28T22:21:30.150Z,99.90
2018-07-28T22:23:59.448Z,99.90
2018-07-28T22:26:28.720Z,99.90
2018-07-28T22:28:57.942Z,99.90
2018-07-28T22:31:27.199Z,99.90
2018-07-28T22:33:56.468Z,99.90
2018-07-28T22:36:25.766Z,99.90
2018-07-28T22:38:54.996Z,99.90
2018-07-28T22:41:24.312Z,99.90
2018-07-28T22:43:53.599Z,99.90
2018-07-28T22:46:22.916Z,99.90
2018-07-28T22:48:52.167Z,99.90
2018-07-28T22:51:21.545Z,99.90
2018-07-28T22:53:50.886Z,99.90
2018-07-28T22:56:20.111Z,99.90
2018-07-28T23:01:18.041Z,99.90
2018-07-28T23:03:47.379Z,99.90
2018-07-28T23:06:16.707Z,99.90
2018-07-28T23:08:46.001Z,99.90
2018-07-28T23:11:15.338Z,99.90
2018-07-28T23:13:44.538Z,99.90
2018-07-28T23:16:13.831Z,99.90
2018-07-28T23:18:43.156Z,99.90
2018-07-28T23:21:12.443Z,99.90
2018-07-28T23:23:41.796Z,99.90
2018-07-28T23:26:11.109Z,99.90
2018-07-28T23:28:40.505Z,99.90
2018-07-28T23:31:09.813Z,99.90
2018-07-28T23:33:39.027Z,99.90
2018-07-28T23:36:08.339Z,99.90
2018-07-28T23:38:37.542Z,99.90
2018-07-28T23:41:06.879Z,99.90
2018-07-28T23:43:36.084Z,99.90
2018-07-28T23:46:05.455Z,99.90
2018-07-28T23:48:34.744Z,99.90
2018-07-28T23:51:04.035Z,99.90
2018-07-28T23:53:33.323Z,99.90
2018-07-28T23:56:02.705Z,99.90
2018-07-28T23:58:32.079Z,99.90
